sensor_id;sensor_type;location;lat;lon;timestamp;pressure;altitude;pressure_sealevel;temperature;humidity
11343;BME280;5726;42.160;24.746;2023-02-28T00:00:16;100077.22;;;12.54;85.79
11343;BME280;5726;42.160;24.746;2023-02-28T00:02:42;100067.78;;;12.56;85.86
11343;BME280;5726;42.160;24.746;2023-02-28T00:05:10;100071.63;;;12.74;84.52
11343;BME280;5726;42.160;24.746;2023-02-28T00:07:36;100079.50;;;12.65;84.64
11343;BME280;5726;42.160;24.746;2023-02-28T00:10:02;100083.81;;;12.66;84.89
11343;BME280;5726;42.160;24.746;2023-02-28T00:12:28;100087.41;;;13.03;82.50
11343;BME280;5726;42.160;24.746;2023-02-28T00:14:53;100089.84;;;13.00;82.52
11343;BME280;5726;42.160;24.746;2023-02-28T00:17:19;100087.09;;;12.82;83.57
11343;BME280;5726;42.160;24.746;2023-02-28T00:19:49;100087.69;;;12.79;83.74
11343;BME280;5726;42.160;24.746;2023-02-28T00:22:19;100087.03;;;12.91;83.08
11343;BME280;5726;42.160;24.746;2023-02-28T00:24:46;100086.88;;;13.01;82.07
11343;BME280;5726;42.160;24.746;2023-02-28T00:27:13;100078.56;;;13.16;81.50
11343;BME280;5726;42.160;24.746;2023-02-28T00:29:38;100087.25;;;13.32;80.79
11343;BME280;5726;42.160;24.746;2023-02-28T00:32:05;100082.28;;;13.38;80.47
11343;BME280;5726;42.160;24.746;2023-02-28T00:34:31;100080.22;;;13.67;78.01
11343;BME280;5726;42.160;24.746;2023-02-28T00:37:06;100078.13;;;13.46;79.69
11343;BME280;5726;42.160;24.746;2023-02-28T00:39:34;100072.72;;;13.46;79.92
11343;BME280;5726;42.160;24.746;2023-02-28T00:42:00;100073.81;;;13.63;79.08
11343;BME280;5726;42.160;24.746;2023-02-28T00:44:25;100064.34;;;13.47;79.28
11343;BME280;5726;42.160;24.746;2023-02-28T00:46:50;100067.34;;;13.46;79.42
11343;BME280;5726;42.160;24.746;2023-02-28T00:49:17;100069.91;;;13.38;80.27
11343;BME280;5726;42.160;24.746;2023-02-28T00:51:42;100069.59;;;13.57;78.65
11343;BME280;5726;42.160;24.746;2023-02-28T00:54:08;100075.50;;;13.41;79.92
11343;BME280;5726;42.160;24.746;2023-02-28T00:56:33;100077.53;;;13.49;79.60
11343;BME280;5726;42.160;24.746;2023-02-28T00:58:59;100075.50;;;13.41;80.16
11343;BME280;5726;42.160;24.746;2023-02-28T01:01:24;100075.38;;;13.51;79.54
11343;BME280;5726;42.160;24.746;2023-02-28T01:03:49;100081.09;;;13.63;78.50
11343;BME280;5726;42.160;24.746;2023-02-28T01:06:15;100087.41;;;13.72;78.29
11343;BME280;5726;42.160;24.746;2023-02-28T01:08:40;100089.00;;;13.73;77.66
11343;BME280;5726;42.160;24.746;2023-02-28T01:11:14;100099.19;;;13.76;77.30
11343;BME280;5726;42.160;24.746;2023-02-28T01:13:40;100096.72;;;13.79;77.11
11343;BME280;5726;42.160;24.746;2023-02-28T01:16:06;100104.50;;;13.81;77.64
11343;BME280;5726;42.160;24.746;2023-02-28T01:18:32;100105.75;;;13.70;78.03
11343;BME280;5726;42.160;24.746;2023-02-28T01:20:57;100111.28;;;13.78;77.74
11343;BME280;5726;42.160;24.746;2023-02-28T01:23:23;100113.81;;;13.88;76.83
11343;BME280;5726;42.160;24.746;2023-02-28T01:25:50;100109.06;;;13.98;75.47
11343;BME280;5726;42.160;24.746;2023-02-28T01:28:16;100103.66;;;13.67;77.06
11343;BME280;5726;42.160;24.746;2023-02-28T01:30:41;100105.13;;;13.59;77.96
11343;BME280;5726;42.160;24.746;2023-02-28T01:33:07;100107.63;;;13.87;75.70
11343;BME280;5726;42.160;24.746;2023-02-28T01:35:35;100101.19;;;13.70;76.51
11343;BME280;5726;42.160;24.746;2023-02-28T01:38:02;100111.63;;;13.40;78.90
11343;BME280;5726;42.160;24.746;2023-02-28T01:40:27;100119.63;;;13.45;78.82
11343;BME280;5726;42.160;24.746;2023-02-28T01:42:53;100127.91;;;13.67;77.73
11343;BME280;5726;42.160;24.746;2023-02-28T01:45:25;100136.56;;;13.82;76.37
11343;BME280;5726;42.160;24.746;2023-02-28T01:47:55;100129.97;;;14.06;74.99
11343;BME280;5726;42.160;24.746;2023-02-28T01:50:25;100132.75;;;13.83;75.78
11343;BME280;5726;42.160;24.746;2023-02-28T01:52:56;100146.47;;;13.86;75.50
11343;BME280;5726;42.160;24.746;2023-02-28T01:55:23;100150.94;;;13.78;76.45
11343;BME280;5726;42.160;24.746;2023-02-28T01:57:56;100149.75;;;13.84;76.75
11343;BME280;5726;42.160;24.746;2023-02-28T02:00:24;100150.53;;;13.84;76.75
11343;BME280;5726;42.160;24.746;2023-02-28T02:02:55;100144.56;;;13.87;75.76
11343;BME280;5726;42.160;24.746;2023-02-28T02:05:29;100163.94;;;13.89;76.42
11343;BME280;5726;42.160;24.746;2023-02-28T02:08:05;100174.66;;;13.76;76.74
11343;BME280;5726;42.160;24.746;2023-02-28T02:10:48;100173.66;;;13.53;77.89
11343;BME280;5726;42.160;24.746;2023-02-28T02:13:52;100171.16;;;13.75;76.83
11343;BME280;5726;42.160;24.746;2023-02-28T02:33:04;100175.66;;;13.06;97.05
11343;BME280;5726;42.160;24.746;2023-02-28T02:38:34;100171.59;;;12.81;99.63
11343;BME280;5726;42.160;24.746;2023-02-28T02:43:45;100187.66;;;12.39;100.00
11343;BME280;5726;42.160;24.746;2023-02-28T02:46:20;100180.06;;;12.46;100.00
11343;BME280;5726;42.160;24.746;2023-02-28T02:48:46;100180.84;;;12.46;100.00
11343;BME280;5726;42.160;24.746;2023-02-28T02:51:17;100193.50;;;12.46;100.00
11343;BME280;5726;42.160;24.746;2023-02-28T02:54:08;100193.84;;;12.40;100.00
11343;BME280;5726;42.160;24.746;2023-02-28T02:56:39;100201.09;;;12.39;100.00
11343;BME280;5726;42.160;24.746;2023-02-28T02:59:09;100198.94;;;12.41;100.00
11343;BME280;5726;42.160;24.746;2023-02-28T03:01:37;100208.59;;;12.47;100.00
11343;BME280;5726;42.160;24.746;2023-02-28T03:04:11;100216.38;;;12.15;100.00
11343;BME280;5726;42.160;24.746;2023-02-28T03:06:38;100222.72;;;12.29;99.24
11343;BME280;5726;42.160;24.746;2023-02-28T03:09:03;100213.25;;;12.03;100.00
11343;BME280;5726;42.160;24.746;2023-02-28T03:11:29;100217.59;;;11.94;100.00
11343;BME280;5726;42.160;24.746;2023-02-28T03:22:21;100231.59;;;11.96;100.00
11343;BME280;5726;42.160;24.746;2023-02-28T03:27:27;100231.38;;;11.88;100.00
11343;BME280;5726;42.160;24.746;2023-02-28T03:30:03;100233.84;;;11.80;100.00
11343;BME280;5726;42.160;24.746;2023-02-28T03:33:08;100246.72;;;11.88;100.00
11343;BME280;5726;42.160;24.746;2023-02-28T03:35:40;100235.44;;;11.81;100.00
11343;BME280;5726;42.160;24.746;2023-02-28T03:38:13;100240.88;;;11.71;100.00
11343;BME280;5726;42.160;24.746;2023-02-28T03:40:46;100241.56;;;11.48;100.00
11343;BME280;5726;42.160;24.746;2023-02-28T03:43:18;100250.69;;;11.47;100.00
11343;BME280;5726;42.160;24.746;2023-02-28T03:45:45;100245.84;;;11.44;100.00
11343;BME280;5726;42.160;24.746;2023-02-28T03:48:23;100259.72;;;11.66;100.00
11343;BME280;5726;42.160;24.746;2023-02-28T03:50:53;100251.63;;;11.76;100.00
11343;BME280;5726;42.160;24.746;2023-02-28T03:53:27;100250.69;;;11.47;100.00
11343;BME280;5726;42.160;24.746;2023-02-28T03:56:01;100261.41;;;11.47;100.00
11343;BME280;5726;42.160;24.746;2023-02-28T03:59:02;100266.25;;;11.50;100.00
11343;BME280;5726;42.160;24.746;2023-02-28T04:04:01;100271.09;;;11.43;100.00
11343;BME280;5726;42.160;24.746;2023-02-28T04:06:31;100277.25;;;11.48;100.00
11343;BME280;5726;42.160;24.746;2023-02-28T04:08:57;100288.81;;;11.39;100.00
11343;BME280;5726;42.160;24.746;2023-02-28T04:13:51;100277.03;;;11.40;100.00
11343;BME280;5726;42.160;24.746;2023-02-28T04:16:17;100287.00;;;11.30;100.00
11343;BME280;5726;42.160;24.746;2023-02-28T04:18:43;100305.78;;;11.25;100.00
11343;BME280;5726;42.160;24.746;2023-02-28T04:21:09;100307.44;;;11.11;100.00
11343;BME280;5726;42.160;24.746;2023-02-28T04:23:35;100305.81;;;11.10;100.00
11343;BME280;5726;42.160;24.746;2023-02-28T04:26:00;100305.56;;;11.11;100.00
11343;BME280;5726;42.160;24.746;2023-02-28T04:28:26;100294.28;;;11.14;100.00
11343;BME280;5726;42.160;24.746;2023-02-28T04:31:10;100293.72;;;11.17;100.00
11343;BME280;5726;42.160;24.746;2023-02-28T04:33:35;100295.09;;;11.10;100.00
11343;BME280;5726;42.160;24.746;2023-02-28T04:36:07;100294.31;;;10.99;100.00
11343;BME280;5726;42.160;24.746;2023-02-28T04:38:37;100302.09;;;10.96;100.00
11343;BME280;5726;42.160;24.746;2023-02-28T04:41:04;100303.97;;;10.91;100.00
11343;BME280;5726;42.160;24.746;2023-02-28T04:43:30;100298.63;;;10.91;100.00
11343;BME280;5726;42.160;24.746;2023-02-28T04:45:59;100295.69;;;10.87;100.00
11343;BME280;5726;42.160;24.746;2023-02-28T04:48:28;100300.22;;;11.01;100.00
11343;BME280;5726;42.160;24.746;2023-02-28T04:50:54;100306.69;;;10.96;100.00
11343;BME280;5726;42.160;24.746;2023-02-28T04:53:19;100301.56;;;10.89;100.00
11343;BME280;5726;42.160;24.746;2023-02-28T04:55:45;100294.88;;;10.92;100.00
11343;BME280;5726;42.160;24.746;2023-02-28T04:58:12;100301.31;;;10.96;100.00
11343;BME280;5726;42.160;24.746;2023-02-28T05:00:38;100297.25;;;10.98;100.00
11343;BME280;5726;42.160;24.746;2023-02-28T05:03:03;100309.59;;;11.09;100.00
11343;BME280;5726;42.160;24.746;2023-02-28T05:05:29;100316.88;;;10.98;100.00
11343;BME280;5726;42.160;24.746;2023-02-28T05:07:54;100332.38;;;11.11;100.00
11343;BME280;5726;42.160;24.746;2023-02-28T05:10:21;100323.56;;;11.06;100.00
11343;BME280;5726;42.160;24.746;2023-02-28T05:12:47;100334.06;;;10.93;100.00
11343;BME280;5726;42.160;24.746;2023-02-28T05:15:14;100339.94;;;10.99;100.00
11343;BME280;5726;42.160;24.746;2023-02-28T05:17:40;100337.28;;;10.90;100.00
11343;BME280;5726;42.160;24.746;2023-02-28T05:20:06;100339.16;;;10.84;100.00
11343;BME280;5726;42.160;24.746;2023-02-28T05:22:32;100347.47;;;10.78;100.00
11343;BME280;5726;42.160;24.746;2023-02-28T05:24:58;100337.28;;;10.75;100.00
11343;BME280;5726;42.160;24.746;2023-02-28T05:27:23;100336.50;;;10.64;100.00
11343;BME280;5726;42.160;24.746;2023-02-28T05:29:49;100338.38;;;10.54;100.00
11343;BME280;5726;42.160;24.746;2023-02-28T05:32:14;100382.88;;;10.50;100.00
11343;BME280;5726;42.160;24.746;2023-02-28T05:34:41;100353.38;;;10.65;100.00
11343;BME280;5726;42.160;24.746;2023-02-28T05:37:11;100357.09;;;10.49;100.00
11343;BME280;5726;42.160;24.746;2023-02-28T05:39:37;100366.25;;;10.68;100.00
11343;BME280;5726;42.160;24.746;2023-02-28T05:42:04;100356.06;;;10.80;100.00
11343;BME280;5726;42.160;24.746;2023-02-28T05:44:29;100368.13;;;10.87;100.00
11343;BME280;5726;42.160;24.746;2023-02-28T05:46:55;100378.56;;;11.03;100.00
11343;BME280;5726;42.160;24.746;2023-02-28T05:49:21;100369.47;;;10.80;100.00
11343;BME280;5726;42.160;24.746;2023-02-28T05:51:46;100366.78;;;10.70;100.00
11343;BME280;5726;42.160;24.746;2023-02-28T05:54:12;100370.53;;;10.79;100.00
11343;BME280;5726;42.160;24.746;2023-02-28T05:56:37;100377.53;;;10.75;100.00
11343;BME280;5726;42.160;24.746;2023-02-28T05:59:05;100372.16;;;10.90;100.00
11343;BME280;5726;42.160;24.746;2023-02-28T06:01:34;100377.19;;;11.16;100.00
11343;BME280;5726;42.160;24.746;2023-02-28T06:04:00;100380.19;;;10.90;100.00
11343;BME280;5726;42.160;24.746;2023-02-28T06:06:27;100382.31;;;11.22;100.00
11343;BME280;5726;42.160;24.746;2023-02-28T06:08:52;100375.31;;;11.31;100.00
11343;BME280;5726;42.160;24.746;2023-02-28T06:11:18;100382.31;;;11.17;100.00
11343;BME280;5726;42.160;24.746;2023-02-28T06:13:45;100390.91;;;11.04;100.00
11343;BME280;5726;42.160;24.746;2023-02-28T06:16:11;100381.78;;;11.10;100.00
11343;BME280;5726;42.160;24.746;2023-02-28T06:18:37;100388.75;;;11.06;100.00
11343;BME280;5726;42.160;24.746;2023-02-28T06:21:02;100404.88;;;11.06;100.00
11343;BME280;5726;42.160;24.746;2023-02-28T06:23:28;100390.38;;;10.68;100.00
11343;BME280;5726;42.160;24.746;2023-02-28T06:25:53;100389.84;;;10.71;100.00
11343;BME280;5726;42.160;24.746;2023-02-28T06:28:22;100390.94;;;10.75;100.00
11343;BME280;5726;42.160;24.746;2023-02-28T06:30:48;100384.22;;;10.77;100.00
11343;BME280;5726;42.160;24.746;2023-02-28T06:33:13;100384.75;;;10.89;100.00
11343;BME280;5726;42.160;24.746;2023-02-28T06:35:39;100400.31;;;10.77;100.00
11343;BME280;5726;42.160;24.746;2023-02-28T06:38:04;100397.09;;;10.70;100.00
11343;BME280;5726;42.160;24.746;2023-02-28T06:40:30;100403.25;;;10.86;100.00
11343;BME280;5726;42.160;24.746;2023-02-28T06:42:59;100413.19;;;11.00;100.00
11343;BME280;5726;42.160;24.746;2023-02-28T06:45:24;100406.22;;;10.79;100.00
11343;BME280;5726;42.160;24.746;2023-02-28T06:47:51;100414.81;;;10.76;100.00
11343;BME280;5726;42.160;24.746;2023-02-28T06:50:17;100405.94;;;10.71;100.00
11343;BME280;5726;42.160;24.746;2023-02-28T06:52:44;100415.06;;;10.60;100.00
11343;BME280;5726;42.160;24.746;2023-02-28T06:55:10;100415.63;;;10.72;100.00
11343;BME280;5726;42.160;24.746;2023-02-28T06:57:36;100406.47;;;10.88;100.00
11343;BME280;5726;42.160;24.746;2023-02-28T07:00:06;100434.41;;;10.87;100.00
11343;BME280;5726;42.160;24.746;2023-02-28T07:02:33;100416.66;;;10.61;100.00
11343;BME280;5726;42.160;24.746;2023-02-28T07:04:59;100420.97;;;10.87;100.00
11343;BME280;5726;42.160;24.746;2023-02-28T07:07:24;100438.13;;;10.91;100.00
11343;BME280;5726;42.160;24.746;2023-02-28T07:09:50;100435.97;;;10.88;100.00
11343;BME280;5726;42.160;24.746;2023-02-28T07:12:15;100436.53;;;10.80;100.00
11343;BME280;5726;42.160;24.746;2023-02-28T07:14:41;100414.00;;;10.91;100.00
11343;BME280;5726;42.160;24.746;2023-02-28T07:17:07;100417.22;;;10.93;100.00
11343;BME280;5726;42.160;24.746;2023-02-28T07:19:33;100435.19;;;10.87;100.00
11343;BME280;5726;42.160;24.746;2023-02-28T07:21:58;100422.59;;;10.97;100.00
11343;BME280;5726;42.160;24.746;2023-02-28T07:24:24;100418.84;;;10.98;100.00
11343;BME280;5726;42.160;24.746;2023-02-28T07:26:53;100430.34;;;10.89;100.00
11343;BME280;5726;42.160;24.746;2023-02-28T07:29:18;100445.91;;;10.72;100.00
11343;BME280;5726;42.160;24.746;2023-02-28T07:31:44;100430.34;;;10.69;100.00
11343;BME280;5726;42.160;24.746;2023-02-28T07:34:09;100427.34;;;10.41;100.00
11343;BME280;5726;42.160;24.746;2023-02-28T07:36:35;100437.53;;;10.44;100.00
11343;BME280;5726;42.160;24.746;2023-02-28T07:39:00;100441.06;;;10.69;100.00
11343;BME280;5726;42.160;24.746;2023-02-28T07:41:26;100445.63;;;10.59;100.00
11343;BME280;5726;42.160;24.746;2023-02-28T07:43:55;100447.22;;;10.50;100.00
11343;BME280;5726;42.160;24.746;2023-02-28T07:46:22;100448.28;;;10.49;100.00
11343;BME280;5726;42.160;24.746;2023-02-28T07:48:48;100439.66;;;10.32;100.00
11343;BME280;5726;42.160;24.746;2023-02-28T07:51:13;100441.56;;;10.37;100.00
11343;BME280;5726;42.160;24.746;2023-02-28T07:53:39;100437.00;;;10.52;100.00
11343;BME280;5726;42.160;24.746;2023-02-28T07:56:05;100438.91;;;10.47;100.00
11343;BME280;5726;42.160;24.746;2023-02-28T07:58:31;100435.38;;;10.31;100.00
11343;BME280;5726;42.160;24.746;2023-02-28T08:00:57;100461.63;;;10.34;100.00
11343;BME280;5726;42.160;24.746;2023-02-28T08:03:23;100446.66;;;10.33;100.00
11343;BME280;5726;42.160;24.746;2023-02-28T08:05:49;100440.50;;;10.43;100.00
11343;BME280;5726;42.160;24.746;2023-02-28T08:08:16;100445.56;;;10.34;100.00
11343;BME280;5726;42.160;24.746;2023-02-28T08:10:42;100462.16;;;10.31;100.00
11343;BME280;5726;42.160;24.746;2023-02-28T08:13:07;100448.50;;;10.28;100.00
11343;BME280;5726;42.160;24.746;2023-02-28T08:15:33;100445.31;;;10.41;100.00
11343;BME280;5726;42.160;24.746;2023-02-28T08:17:58;100450.41;;;10.42;100.00
11343;BME280;5726;42.160;24.746;2023-02-28T08:20:25;100468.63;;;10.40;100.00
11343;BME280;5726;42.160;24.746;2023-02-28T08:22:50;100444.75;;;10.39;100.00
11343;BME280;5726;42.160;24.746;2023-02-28T08:25:16;100441.81;;;10.40;100.00
11343;BME280;5726;42.160;24.746;2023-02-28T08:27:42;100440.50;;;10.43;100.00
11343;BME280;5726;42.160;24.746;2023-02-28T08:30:10;100446.16;;;10.56;100.00
11343;BME280;5726;42.160;24.746;2023-02-28T08:32:35;100448.03;;;10.60;100.00
11343;BME280;5726;42.160;24.746;2023-02-28T08:35:01;100442.91;;;10.44;100.00
11343;BME280;5726;42.160;24.746;2023-02-28T08:37:28;100434.63;;;10.55;100.00
11343;BME280;5726;42.160;24.746;2023-02-28T08:39:53;100441.63;;;10.86;100.00
11343;BME280;5726;42.160;24.746;2023-02-28T08:42:19;100457.72;;;10.76;100.00
11343;BME280;5726;42.160;24.746;2023-02-28T08:44:44;100453.72;;;10.84;100.00
11343;BME280;5726;42.160;24.746;2023-02-28T08:47:09;100456.38;;;10.94;100.00
11343;BME280;5726;42.160;24.746;2023-02-28T08:49:36;100454.78;;;10.93;100.00
11343;BME280;5726;42.160;24.746;2023-02-28T08:52:02;100462.28;;;10.91;100.00
11343;BME280;5726;42.160;24.746;2023-02-28T08:54:28;100458.28;;;10.93;100.00
11343;BME280;5726;42.160;24.746;2023-02-28T08:56:55;100462.28;;;11.05;100.00
11343;BME280;5726;42.160;24.746;2023-02-28T08:59:21;100474.38;;;11.08;100.00
11343;BME280;5726;42.160;24.746;2023-02-28T09:01:46;100471.97;;;11.01;100.00
11343;BME280;5726;42.160;24.746;2023-02-28T09:04:12;100465.78;;;10.81;100.00
11343;BME280;5726;42.160;24.746;2023-02-28T09:06:37;100457.75;;;10.91;100.00
11343;BME280;5726;42.160;24.746;2023-02-28T09:09:03;100458.53;;;10.87;100.00
11343;BME280;5726;42.160;24.746;2023-02-28T09:11:31;100461.50;;;11.00;100.00
11343;BME280;5726;42.160;24.746;2023-02-28T09:13:57;100454.78;;;11.17;100.00
11343;BME280;5726;42.160;24.746;2023-02-28T09:16:24;100467.66;;;11.15;100.00
11343;BME280;5726;42.160;24.746;2023-02-28T09:18:49;100463.91;;;11.16;100.00
11343;BME280;5726;42.160;24.746;2023-02-28T09:21:17;100457.47;;;10.97;100.00
11343;BME280;5726;42.160;24.746;2023-02-28T09:23:44;100464.97;;;11.00;100.00
11343;BME280;5726;42.160;24.746;2023-02-28T09:26:27;100450.47;;;10.96;100.00
11343;BME280;5726;42.160;24.746;2023-02-28T09:28:53;100452.09;;;10.93;100.00
11343;BME280;5726;42.160;24.746;2023-02-28T09:31:24;100439.19;;;10.70;100.00
11343;BME280;5726;42.160;24.746;2023-02-28T09:33:52;100445.13;;;10.87;100.00
11343;BME280;5726;42.160;24.746;2023-02-28T09:36:19;100444.03;;;10.88;100.00
11343;BME280;5726;42.160;24.746;2023-02-28T09:38:44;100431.19;;;10.90;100.00
11343;BME280;5726;42.160;24.746;2023-02-28T09:41:17;100429.81;;;10.87;100.00
11343;BME280;5726;42.160;24.746;2023-02-28T09:43:48;100426.88;;;10.98;100.00
11343;BME280;5726;42.160;24.746;2023-02-28T09:48:47;100444.31;;;10.86;100.00
11343;BME280;5726;42.160;24.746;2023-02-28T09:54:01;100436.25;;;10.96;100.00
11343;BME280;5726;42.160;24.746;2023-02-28T09:56:41;100445.91;;;10.92;100.00
11343;BME280;5726;42.160;24.746;2023-02-28T10:02:03;100429.53;;;10.79;100.00
11343;BME280;5726;42.160;24.746;2023-02-28T10:04:48;100419.34;;;10.86;100.00
11343;BME280;5726;42.160;24.746;2023-02-28T10:10:41;100413.47;;;10.98;100.00
11343;BME280;5726;42.160;24.746;2023-02-28T10:13:22;100405.94;;;10.91;100.00
11343;BME280;5726;42.160;24.746;2023-02-28T10:15:53;100420.97;;;10.87;100.00
11343;BME280;5726;42.160;24.746;2023-02-28T10:18:24;100414.53;;;10.93;100.00
11343;BME280;5726;42.160;24.746;2023-02-28T10:20:53;100412.41;;;11.04;100.00
11343;BME280;5726;42.160;24.746;2023-02-28T10:23:28;100408.88;;;11.04;100.00
11343;BME280;5726;42.160;24.746;2023-02-28T10:25:59;100400.56;;;11.00;100.00
11343;BME280;5726;42.160;24.746;2023-02-28T10:28:26;100402.72;;;10.89;100.00
11343;BME280;5726;42.160;24.746;2023-02-28T10:30:54;100396.25;;;11.14;100.00
11343;BME280;5726;42.160;24.746;2023-02-28T10:33:32;100394.38;;;11.20;100.00
11343;BME280;5726;42.160;24.746;2023-02-28T10:35:59;100396.78;;;11.21;100.00
11343;BME280;5726;42.160;24.746;2023-02-28T10:41:04;100387.41;;;10.89;100.00
11343;BME280;5726;42.160;24.746;2023-02-28T10:43:30;100392.00;;;10.89;100.00
11343;BME280;5726;42.160;24.746;2023-02-28T10:45:59;100402.19;;;10.92;100.00
11343;BME280;5726;42.160;24.746;2023-02-28T10:48:33;100388.22;;;10.85;100.00
11343;BME280;5726;42.160;24.746;2023-02-28T10:50:59;100382.31;;;11.02;100.00
11343;BME280;5726;42.160;24.746;2023-02-28T10:53:32;100393.84;;;11.23;100.00
11343;BME280;5726;42.160;24.746;2023-02-28T11:01:45;100381.28;;;10.84;100.00
11343;BME280;5726;42.160;24.746;2023-02-28T11:04:20;100382.88;;;10.95;100.00
11343;BME280;5726;42.160;24.746;2023-02-28T11:06:47;100375.63;;;11.00;100.00
11343;BME280;5726;42.160;24.746;2023-02-28T11:09:33;100381.81;;;10.86;100.00
11343;BME280;5726;42.160;24.746;2023-02-28T11:12:00;100380.19;;;10.85;100.00
11343;BME280;5726;42.160;24.746;2023-02-28T11:14:32;100372.69;;;10.92;100.00
11343;BME280;5726;42.160;24.746;2023-02-28T11:17:13;100381.00;;;10.75;100.00
11343;BME280;5726;42.160;24.746;2023-02-28T11:19:46;100372.69;;;10.87;100.00
11343;BME280;5726;42.160;24.746;2023-02-28T11:22:18;100375.38;;;10.92;100.00
11343;BME280;5726;42.160;24.746;2023-02-28T11:24:46;100379.66;;;10.78;100.00
11343;BME280;5726;42.160;24.746;2023-02-28T11:29:57;100364.09;;;10.60;100.00
11343;BME280;5726;42.160;24.746;2023-02-28T11:32:24;100365.97;;;10.49;100.00
11343;BME280;5726;42.160;24.746;2023-02-28T11:35:17;100367.31;;;10.82;100.00
11343;BME280;5726;42.160;24.746;2023-02-28T11:37:48;100369.97;;;10.52;100.00
11343;BME280;5726;42.160;24.746;2023-02-28T11:40:19;100371.06;;;10.61;100.00
11343;BME280;5726;42.160;24.746;2023-02-28T11:48:04;100362.50;;;10.59;100.00
11343;BME280;5726;42.160;24.746;2023-02-28T11:50:42;100363.84;;;10.47;100.00
11343;BME280;5726;42.160;24.746;2023-02-28T11:55:38;100353.38;;;10.55;100.00
11343;BME280;5726;42.160;24.746;2023-02-28T12:01:25;100353.09;;;10.71;100.00
11343;BME280;5726;42.160;24.746;2023-02-28T12:04:10;100352.28;;;10.61;100.00
11343;BME280;5726;42.160;24.746;2023-02-28T12:06:47;100352.31;;;10.51;100.00
11343;BME280;5726;42.160;24.746;2023-02-28T12:09:34;100358.19;;;10.38;100.00
11343;BME280;5726;42.160;24.746;2023-02-28T12:15:12;100349.06;;;10.49;100.00
11343;BME280;5726;42.160;24.746;2023-02-28T12:17:55;100348.81;;;10.41;100.00
11343;BME280;5726;42.160;24.746;2023-02-28T12:20:45;100346.69;;;10.67;100.00
11343;BME280;5726;42.160;24.746;2023-02-28T12:28:29;100353.38;;;10.55;100.00
11343;BME280;5726;42.160;24.746;2023-02-28T12:31:00;100346.41;;;10.59;100.00
11343;BME280;5726;42.160;24.746;2023-02-28T12:33:42;100346.66;;;10.38;100.00
11343;BME280;5726;42.160;24.746;2023-02-28T12:36:11;100334.84;;;10.24;100.00
11343;BME280;5726;42.160;24.746;2023-02-28T12:39:20;100329.78;;;10.57;100.00
11343;BME280;5726;42.160;24.746;2023-02-28T12:42:26;100331.38;;;10.68;100.00
11343;BME280;5726;42.160;24.746;2023-02-28T12:44:58;100326.03;;;10.68;100.00
11343;BME280;5726;42.160;24.746;2023-02-28T12:47:24;100320.94;;;10.51;100.00
11343;BME280;5726;42.160;24.746;2023-02-28T12:49:53;100324.66;;;10.50;100.00
11343;BME280;5726;42.160;24.746;2023-02-28T12:52:25;100321.72;;;10.72;100.00
11343;BME280;5726;42.160;24.746;2023-02-28T12:55:03;100334.06;;;10.83;100.00
11343;BME280;5726;42.160;24.746;2023-02-28T13:00:33;100320.91;;;10.56;100.00
11343;BME280;5726;42.160;24.746;2023-02-28T13:06:35;100323.31;;;10.43;100.00
11343;BME280;5726;42.160;24.746;2023-02-28T13:09:11;100325.50;;;10.51;100.00
11343;BME280;5726;42.160;24.746;2023-02-28T13:11:49;100331.41;;;10.48;100.00
11343;BME280;5726;42.160;24.746;2023-02-28T13:19:22;100322.00;;;10.46;100.00
11343;BME280;5726;42.160;24.746;2023-02-28T13:21:50;100319.06;;;10.57;100.00
11343;BME280;5726;42.160;24.746;2023-02-28T13:24:44;100329.78;;;10.57;100.00
11343;BME280;5726;42.160;24.746;2023-02-28T13:29:41;100321.72;;;10.67;100.00
11343;BME280;5726;42.160;24.746;2023-02-28T13:34:49;100319.06;;;10.57;100.00
11343;BME280;5726;42.160;24.746;2023-02-28T13:37:35;100319.03;;;10.32;100.00
11343;BME280;5726;42.160;24.746;2023-02-28T13:47:39;100316.91;;;10.44;100.00
11343;BME280;5726;42.160;24.746;2023-02-28T14:08:57;100326.81;;;10.39;100.00
11343;BME280;5726;42.160;24.746;2023-02-28T14:11:35;100326.56;;;10.45;100.00
11343;BME280;5726;42.160;24.746;2023-02-28T14:14:02;100319.59;;;10.44;100.00
11343;BME280;5726;42.160;24.746;2023-02-28T14:16:40;100325.22;;;10.48;100.00
11343;BME280;5726;42.160;24.746;2023-02-28T14:32:45;100328.16;;;10.46;100.00
11343;BME280;5726;42.160;24.746;2023-02-28T14:37:50;100328.44;;;10.40;100.00
11343;BME280;5726;42.160;24.746;2023-02-28T14:40:22;100325.22;;;10.57;100.00
11343;BME280;5726;42.160;24.746;2023-02-28T14:43:01;100327.09;;;10.52;100.00
11343;BME280;5726;42.160;24.746;2023-02-28T14:48:50;100331.63;;;10.42;100.00
11343;BME280;5726;42.160;24.746;2023-02-28T14:51:21;100341.56;;;10.41;100.00
11343;BME280;5726;42.160;24.746;2023-02-28T14:53:56;100329.78;;;10.47;100.00
11343;BME280;5726;42.160;24.746;2023-02-28T14:56:24;100328.97;;;10.51;100.00
11343;BME280;5726;42.160;24.746;2023-02-28T14:58:53;100335.66;;;10.34;100.00
11343;BME280;5726;42.160;24.746;2023-02-28T15:01:21;100340.50;;;10.42;100.00
11343;BME280;5726;42.160;24.746;2023-02-28T15:03:48;100345.84;;;10.32;100.00
11343;BME280;5726;42.160;24.746;2023-02-28T15:06:21;100346.94;;;10.41;100.00
11343;BME280;5726;42.160;24.746;2023-02-28T15:09:06;100349.31;;;10.33;100.00
11343;BME280;5726;42.160;24.746;2023-02-28T15:11:33;100352.03;;;10.38;100.00
11343;BME280;5726;42.160;24.746;2023-02-28T15:13:58;100342.66;;;10.50;100.00
11343;BME280;5726;42.160;24.746;2023-02-28T15:16:34;100354.44;;;10.54;100.00